sensor_id;sensor_type;location;lat;lon;timestamp;P1;durP1;ratioP1;P2;durP2;ratioP2
7332;SDS011;3707;43.618;25.342;2022-08-21T00:01:40;15.32;;;8.95;;
7332;SDS011;3707;43.618;25.342;2022-08-21T00:04:07;10.10;;;8.88;;
7332;SDS011;3707;43.618;25.342;2022-08-21T00:06:35;14.25;;;8.38;;
7332;SDS011;3707;43.618;25.342;2022-08-21T00:09:03;11.20;;;8.05;;
7332;SDS011;3707;43.618;25.342;2022-08-21T00:11:33;12.68;;;8.52;;
7332;SDS011;3707;43.618;25.342;2022-08-21T00:14:02;13.77;;;8.95;;
7332;SDS011;3707;43.618;25.342;2022-08-21T00:16:31;13.57;;;8.65;;
7332;SDS011;3707;43.618;25.342;2022-08-21T00:18:58;12.85;;;8.32;;
7332;SDS011;3707;43.618;25.342;2022-08-21T00:21:25;13.80;;;8.82;;
7332;SDS011;3707;43.618;25.342;2022-08-21T00:23:52;17.92;;;8.25;;
7332;SDS011;3707;43.618;25.342;2022-08-21T00:26:19;12.25;;;7.47;;
7332;SDS011;3707;43.618;25.342;2022-08-21T00:28:47;13.35;;;7.93;;
7332;SDS011;3707;43.618;25.342;2022-08-21T00:31:14;10.20;;;7.47;;
7332;SDS011;3707;43.618;25.342;2022-08-21T00:33:41;9.35;;;6.53;;
7332;SDS011;3707;43.618;25.342;2022-08-21T00:36:08;9.65;;;6.32;;
7332;SDS011;3707;43.618;25.342;2022-08-21T00:38:36;12.23;;;5.60;;
7332;SDS011;3707;43.618;25.342;2022-08-21T00:41:05;5.95;;;4.97;;
7332;SDS011;3707;43.618;25.342;2022-08-21T00:43:34;7.10;;;4.70;;
7332;SDS011;3707;43.618;25.342;2022-08-21T00:46:04;6.30;;;5.03;;
7332;SDS011;3707;43.618;25.342;2022-08-21T00:48:33;10.73;;;5.38;;
7332;SDS011;3707;43.618;25.342;2022-08-21T00:51:01;6.35;;;4.88;;
7332;SDS011;3707;43.618;25.342;2022-08-21T00:53:31;11.05;;;4.90;;
7332;SDS011;3707;43.618;25.342;2022-08-21T00:55:58;5.40;;;4.90;;
7332;SDS011;3707;43.618;25.342;2022-08-21T00:58:27;8.27;;;4.43;;
7332;SDS011;3707;43.618;25.342;2022-08-21T01:00:56;7.47;;;4.75;;
7332;SDS011;3707;43.618;25.342;2022-08-21T01:03:25;4.55;;;4.15;;
7332;SDS011;3707;43.618;25.342;2022-08-21T01:05:52;7.18;;;4.53;;
7332;SDS011;3707;43.618;25.342;2022-08-21T01:08:19;5.35;;;4.70;;
7332;SDS011;3707;43.618;25.342;2022-08-21T01:10:48;11.00;;;4.43;;
7332;SDS011;3707;43.618;25.342;2022-08-21T01:13:16;5.07;;;4.00;;
7332;SDS011;3707;43.618;25.342;2022-08-21T01:15:45;7.22;;;4.18;;
7332;SDS011;3707;43.618;25.342;2022-08-21T01:18:14;4.68;;;3.83;;
7332;SDS011;3707;43.618;25.342;2022-08-21T01:20:44;8.00;;;4.22;;
7332;SDS011;3707;43.618;25.342;2022-08-21T01:23:21;7.25;;;3.95;;
7332;SDS011;3707;43.618;25.342;2022-08-21T01:25:48;6.43;;;3.90;;
7332;SDS011;3707;43.618;25.342;2022-08-21T01:28:15;5.80;;;4.00;;
7332;SDS011;3707;43.618;25.342;2022-08-21T01:30:43;8.38;;;4.28;;
7332;SDS011;3707;43.618;25.342;2022-08-21T01:33:10;5.53;;;3.90;;
7332;SDS011;3707;43.618;25.342;2022-08-21T01:35:37;4.72;;;4.18;;
7332;SDS011;3707;43.618;25.342;2022-08-21T01:38:06;6.18;;;4.00;;
7332;SDS011;3707;43.618;25.342;2022-08-21T01:40:33;7.25;;;3.65;;
7332;SDS011;3707;43.618;25.342;2022-08-21T01:42:59;4.70;;;4.13;;
7332;SDS011;3707;43.618;25.342;2022-08-21T01:45:27;8.65;;;4.40;;
7332;SDS011;3707;43.618;25.342;2022-08-21T01:47:54;7.40;;;3.90;;
7332;SDS011;3707;43.618;25.342;2022-08-21T01:50:21;5.60;;;3.80;;
7332;SDS011;3707;43.618;25.342;2022-08-21T01:52:48;6.18;;;3.95;;
7332;SDS011;3707;43.618;25.342;2022-08-21T01:55:17;8.13;;;4.57;;
7332;SDS011;3707;43.618;25.342;2022-08-21T01:57:45;6.47;;;4.63;;
7332;SDS011;3707;43.618;25.342;2022-08-21T02:00:13;6.57;;;4.10;;
7332;SDS011;3707;43.618;25.342;2022-08-21T02:02:42;5.68;;;4.10;;
7332;SDS011;3707;43.618;25.342;2022-08-21T02:05:10;5.78;;;4.05;;
7332;SDS011;3707;43.618;25.342;2022-08-21T02:07:38;5.90;;;3.88;;
7332;SDS011;3707;43.618;25.342;2022-08-21T02:10:07;6.03;;;4.45;;
7332;SDS011;3707;43.618;25.342;2022-08-21T02:12:36;9.55;;;4.43;;
7332;SDS011;3707;43.618;25.342;2022-08-21T02:15:04;5.22;;;4.68;;
7332;SDS011;3707;43.618;25.342;2022-08-21T02:17:36;7.20;;;4.18;;
7332;SDS011;3707;43.618;25.342;2022-08-21T02:20:04;6.82;;;4.25;;
7332;SDS011;3707;43.618;25.342;2022-08-21T02:22:32;6.07;;;4.43;;
7332;SDS011;3707;43.618;25.342;2022-08-21T02:24:58;8.60;;;4.93;;
7332;SDS011;3707;43.618;25.342;2022-08-21T02:27:25;7.93;;;4.25;;
7332;SDS011;3707;43.618;25.342;2022-08-21T02:29:54;9.88;;;4.78;;
7332;SDS011;3707;43.618;25.342;2022-08-21T02:32:23;4.72;;;4.30;;
7332;SDS011;3707;43.618;25.342;2022-08-21T02:34:50;8.18;;;4.10;;
7332;SDS011;3707;43.618;25.342;2022-08-21T02:37:17;7.47;;;5.15;;
7332;SDS011;3707;43.618;25.342;2022-08-21T02:39:44;7.13;;;4.38;;
7332;SDS011;3707;43.618;25.342;2022-08-21T02:42:11;4.93;;;4.03;;
7332;SDS011;3707;43.618;25.342;2022-08-21T02:44:37;8.20;;;4.75;;
7332;SDS011;3707;43.618;25.342;2022-08-21T02:47:06;6.53;;;4.90;;
7332;SDS011;3707;43.618;25.342;2022-08-21T02:49:33;9.27;;;4.85;;
7332;SDS011;3707;43.618;25.342;2022-08-21T02:51:59;8.30;;;4.70;;
7332;SDS011;3707;43.618;25.342;2022-08-21T02:54:26;6.93;;;5.15;;
7332;SDS011;3707;43.618;25.342;2022-08-21T02:56:53;9.05;;;5.30;;
7332;SDS011;3707;43.618;25.342;2022-08-21T02:59:20;6.85;;;4.75;;
7332;SDS011;3707;43.618;25.342;2022-08-21T03:01:47;10.60;;;5.28;;
7332;SDS011;3707;43.618;25.342;2022-08-21T03:04:15;11.52;;;5.55;;
7332;SDS011;3707;43.618;25.342;2022-08-21T03:06:42;5.60;;;5.03;;
7332;SDS011;3707;43.618;25.342;2022-08-21T03:09:09;8.77;;;4.78;;
7332;SDS011;3707;43.618;25.342;2022-08-21T03:11:35;7.32;;;5.60;;
7332;SDS011;3707;43.618;25.342;2022-08-21T03:14:03;9.45;;;5.03;;
7332;SDS011;3707;43.618;25.342;2022-08-21T03:16:30;10.07;;;5.20;;
7332;SDS011;3707;43.618;25.342;2022-08-21T03:18:57;13.02;;;5.53;;
7332;SDS011;3707;43.618;25.342;2022-08-21T03:21:26;7.32;;;5.05;;
7332;SDS011;3707;43.618;25.342;2022-08-21T03:23:53;9.52;;;5.30;;
7332;SDS011;3707;43.618;25.342;2022-08-21T03:26:20;10.50;;;5.88;;
7332;SDS011;3707;43.618;25.342;2022-08-21T03:28:47;11.52;;;5.38;;
7332;SDS011;3707;43.618;25.342;2022-08-21T03:31:15;11.80;;;5.70;;
7332;SDS011;3707;43.618;25.342;2022-08-21T03:33:42;11.25;;;5.50;;
7332;SDS011;3707;43.618;25.342;2022-08-21T03:36:09;5.65;;;4.45;;
7332;SDS011;3707;43.618;25.342;2022-08-21T03:38:38;8.27;;;5.22;;
7332;SDS011;3707;43.618;25.342;2022-08-21T03:41:06;14.68;;;5.32;;
7332;SDS011;3707;43.618;25.342;2022-08-21T03:43:33;5.40;;;4.70;;
7332;SDS011;3707;43.618;25.342;2022-08-21T03:46:01;7.20;;;5.07;;
7332;SDS011;3707;43.618;25.342;2022-08-21T03:48:29;8.93;;;5.38;;
7332;SDS011;3707;43.618;25.342;2022-08-21T03:50:57;7.97;;;4.95;;
7332;SDS011;3707;43.618;25.342;2022-08-21T03:53:24;7.00;;;5.22;;
7332;SDS011;3707;43.618;25.342;2022-08-21T03:55:52;8.23;;;5.88;;
7332;SDS011;3707;43.618;25.342;2022-08-21T03:58:21;8.48;;;5.55;;
7332;SDS011;3707;43.618;25.342;2022-08-21T04:00:49;8.15;;;5.80;;
7332;SDS011;3707;43.618;25.342;2022-08-21T04:03:19;17.00;;;5.95;;
7332;SDS011;3707;43.618;25.342;2022-08-21T04:05:46;13.55;;;6.35;;
7332;SDS011;3707;43.618;25.342;2022-08-21T04:08:14;11.90;;;6.20;;
7332;SDS011;3707;43.618;25.342;2022-08-21T04:10:43;12.75;;;6.05;;
7332;SDS011;3707;43.618;25.342;2022-08-21T04:13:14;7.80;;;6.55;;
7332;SDS011;3707;43.618;25.342;2022-08-21T04:15:41;12.60;;;6.88;;
7332;SDS011;3707;43.618;25.342;2022-08-21T04:18:08;7.85;;;5.85;;
7332;SDS011;3707;43.618;25.342;2022-08-21T04:20:35;7.60;;;5.75;;
7332;SDS011;3707;43.618;25.342;2022-08-21T04:23:02;7.65;;;5.60;;
7332;SDS011;3707;43.618;25.342;2022-08-21T04:25:29;8.57;;;5.90;;
7332;SDS011;3707;43.618;25.342;2022-08-21T04:27:56;5.82;;;5.20;;
7332;SDS011;3707;43.618;25.342;2022-08-21T04:30:25;9.07;;;5.70;;
7332;SDS011;3707;43.618;25.342;2022-08-21T04:32:52;12.20;;;5.75;;
7332;SDS011;3707;43.618;25.342;2022-08-21T04:35:20;10.00;;;5.40;;
7332;SDS011;3707;43.618;25.342;2022-08-21T04:37:48;12.85;;;7.03;;
7332;SDS011;3707;43.618;25.342;2022-08-21T04:40:16;9.25;;;5.97;;
7332;SDS011;3707;43.618;25.342;2022-08-21T04:42:46;14.05;;;6.65;;
7332;SDS011;3707;43.618;25.342;2022-08-21T04:45:18;6.97;;;5.93;;
7332;SDS011;3707;43.618;25.342;2022-08-21T04:47:49;10.57;;;5.78;;
7332;SDS011;3707;43.618;25.342;2022-08-21T04:50:17;7.72;;;4.60;;
7332;SDS011;3707;43.618;25.342;2022-08-21T04:52:45;8.00;;;5.18;;
7332;SDS011;3707;43.618;25.342;2022-08-21T04:55:12;11.20;;;5.38;;
7332;SDS011;3707;43.618;25.342;2022-08-21T04:57:40;8.98;;;5.60;;
7332;SDS011;3707;43.618;25.342;2022-08-21T05:00:08;12.20;;;6.28;;
7332;SDS011;3707;43.618;25.342;2022-08-21T05:02:39;6.60;;;5.78;;
7332;SDS011;3707;43.618;25.342;2022-08-21T05:05:09;7.05;;;5.18;;
7332;SDS011;3707;43.618;25.342;2022-08-21T05:07:37;8.05;;;5.43;;
7332;SDS011;3707;43.618;25.342;2022-08-21T05:10:04;7.28;;;4.80;;
7332;SDS011;3707;43.618;25.342;2022-08-21T05:12:33;10.75;;;5.43;;
7332;SDS011;3707;43.618;25.342;2022-08-21T05:15:02;6.00;;;4.95;;
7332;SDS011;3707;43.618;25.342;2022-08-21T05:17:29;8.23;;;5.30;;
7332;SDS011;3707;43.618;25.342;2022-08-21T05:19:56;6.80;;;4.95;;
7332;SDS011;3707;43.618;25.342;2022-08-21T05:22:25;7.75;;;4.50;;
7332;SDS011;3707;43.618;25.342;2022-08-21T05:24:51;6.93;;;4.53;;
7332;SDS011;3707;43.618;25.342;2022-08-21T05:27:18;6.95;;;4.95;;
7332;SDS011;3707;43.618;25.342;2022-08-21T05:29:45;6.03;;;4.03;;
7332;SDS011;3707;43.618;25.342;2022-08-21T05:32:12;10.68;;;5.25;;
7332;SDS011;3707;43.618;25.342;2022-08-21T05:34:40;10.88;;;5.03;;
7332;SDS011;3707;43.618;25.342;2022-08-21T05:37:07;5.93;;;4.20;;
7332;SDS011;3707;43.618;25.342;2022-08-21T05:39:38;5.70;;;4.63;;
7332;SDS011;3707;43.618;25.342;2022-08-21T05:42:05;10.23;;;4.93;;
7332;SDS011;3707;43.618;25.342;2022-08-21T05:44:32;7.53;;;4.45;;
7332;SDS011;3707;43.618;25.342;2022-08-21T05:47:02;6.57;;;4.53;;
7332;SDS011;3707;43.618;25.342;2022-08-21T05:49:29;7.38;;;4.85;;
7332;SDS011;3707;43.618;25.342;2022-08-21T05:51:56;9.73;;;4.30;;
7332;SDS011;3707;43.618;25.342;2022-08-21T05:54:23;6.25;;;4.63;;
7332;SDS011;3707;43.618;25.342;2022-08-21T05:56:51;9.48;;;4.70;;
7332;SDS011;3707;43.618;25.342;2022-08-21T05:59:18;6.97;;;4.70;;
7332;SDS011;3707;43.618;25.342;2022-08-21T06:01:45;11.18;;;5.25;;
7332;SDS011;3707;43.618;25.342;2022-08-21T06:04:12;6.57;;;4.82;;
7332;SDS011;3707;43.618;25.342;2022-08-21T06:06:40;7.15;;;4.95;;
7332;SDS011;3707;43.618;25.342;2022-08-21T06:09:06;10.82;;;4.97;;
7332;SDS011;3707;43.618;25.342;2022-08-21T06:11:33;7.82;;;5.07;;
7332;SDS011;3707;43.618;25.342;2022-08-21T06:14:02;7.75;;;4.45;;
7332;SDS011;3707;43.618;25.342;2022-08-21T06:16:31;8.07;;;4.57;;
7332;SDS011;3707;43.618;25.342;2022-08-21T06:18:58;6.03;;;4.47;;
7332;SDS011;3707;43.618;25.342;2022-08-21T06:21:25;7.43;;;4.95;;
7332;SDS011;3707;43.618;25.342;2022-08-21T06:23:52;6.93;;;4.38;;
7332;SDS011;3707;43.618;25.342;2022-08-21T06:26:18;8.05;;;4.50;;
7332;SDS011;3707;43.618;25.342;2022-08-21T06:28:45;5.95;;;4.65;;
7332;SDS011;3707;43.618;25.342;2022-08-21T06:31:14;9.73;;;5.38;;
7332;SDS011;3707;43.618;25.342;2022-08-21T06:33:43;7.63;;;5.03;;
7332;SDS011;3707;43.618;25.342;2022-08-21T06:36:10;5.40;;;4.38;;
7332;SDS011;3707;43.618;25.342;2022-08-21T06:38:38;11.48;;;5.43;;
7332;SDS011;3707;43.618;25.342;2022-08-21T06:41:05;6.35;;;4.88;;
7332;SDS011;3707;43.618;25.342;2022-08-21T06:43:32;8.05;;;5.22;;
7332;SDS011;3707;43.618;25.342;2022-08-21T06:45:59;6.57;;;4.85;;
7332;SDS011;3707;43.618;25.342;2022-08-21T06:48:27;6.03;;;4.50;;
7332;SDS011;3707;43.618;25.342;2022-08-21T06:50:57;11.50;;;4.45;;
7332;SDS011;3707;43.618;25.342;2022-08-21T06:53:24;10.80;;;5.25;;
7332;SDS011;3707;43.618;25.342;2022-08-21T06:55:51;9.05;;;4.93;;
7332;SDS011;3707;43.618;25.342;2022-08-21T06:58:19;8.77;;;4.63;;
7332;SDS011;3707;43.618;25.342;2022-08-21T07:00:46;7.95;;;4.10;;
7332;SDS011;3707;43.618;25.342;2022-08-21T07:03:18;6.30;;;4.15;;
7332;SDS011;3707;43.618;25.342;2022-08-21T07:05:47;5.45;;;3.72;;
7332;SDS011;3707;43.618;25.342;2022-08-21T07:08:15;5.78;;;2.88;;
7332;SDS011;3707;43.618;25.342;2022-08-21T07:10:42;6.75;;;3.60;;
7332;SDS011;3707;43.618;25.342;2022-08-21T07:13:10;4.22;;;3.28;;
7332;SDS011;3707;43.618;25.342;2022-08-21T07:15:37;8.38;;;4.10;;
7332;SDS011;3707;43.618;25.342;2022-08-21T07:18:04;6.05;;;3.85;;
7332;SDS011;3707;43.618;25.342;2022-08-21T07:20:31;9.98;;;3.80;;
7332;SDS011;3707;43.618;25.342;2022-08-21T07:23:01;4.70;;;3.75;;
7332;SDS011;3707;43.618;25.342;2022-08-21T07:25:30;4.45;;;3.25;;
7332;SDS011;3707;43.618;25.342;2022-08-21T07:27:57;5.13;;;3.58;;
7332;SDS011;3707;43.618;25.342;2022-08-21T07:30:24;5.15;;;2.90;;
7332;SDS011;3707;43.618;25.342;2022-08-21T07:32:51;6.80;;;3.67;;
7332;SDS011;3707;43.618;25.342;2022-08-21T07:35:20;7.50;;;3.42;;
7332;SDS011;3707;43.618;25.342;2022-08-21T07:37:48;4.70;;;3.35;;
7332;SDS011;3707;43.618;25.342;2022-08-21T07:40:17;3.83;;;3.40;;
7332;SDS011;3707;43.618;25.342;2022-08-21T07:42:46;4.75;;;3.50;;
7332;SDS011;3707;43.618;25.342;2022-08-21T07:45:15;4.32;;;3.20;;
7332;SDS011;3707;43.618;25.342;2022-08-21T07:47:42;6.45;;;3.30;;
7332;SDS011;3707;43.618;25.342;2022-08-21T07:50:09;3.60;;;2.80;;
7332;SDS011;3707;43.618;25.342;2022-08-21T07:52:37;5.50;;;3.42;;
7332;SDS011;3707;43.618;25.342;2022-08-21T07:55:05;8.30;;;3.38;;
7332;SDS011;3707;43.618;25.342;2022-08-21T07:57:34;4.70;;;3.63;;
7332;SDS011;3707;43.618;25.342;2022-08-21T08:00:01;4.50;;;2.72;;
7332;SDS011;3707;43.618;25.342;2022-08-21T08:02:29;8.45;;;3.58;;
7332;SDS011;3707;43.618;25.342;2022-08-21T08:04:58;6.47;;;3.78;;
7332;SDS011;3707;43.618;25.342;2022-08-21T08:07:25;5.70;;;3.50;;
7332;SDS011;3707;43.618;25.342;2022-08-21T08:09:52;6.45;;;3.92;;
7332;SDS011;3707;43.618;25.342;2022-08-21T08:12:19;5.68;;;4.05;;
7332;SDS011;3707;43.618;25.342;2022-08-21T08:14:48;8.80;;;4.63;;
7332;SDS011;3707;43.618;25.342;2022-08-21T08:17:14;8.80;;;3.63;;
7332;SDS011;3707;43.618;25.342;2022-08-21T08:19:41;15.35;;;6.95;;
7332;SDS011;3707;43.618;25.342;2022-08-21T08:22:12;11.95;;;5.60;;
7332;SDS011;3707;43.618;25.342;2022-08-21T08:24:40;11.20;;;5.47;;
7332;SDS011;3707;43.618;25.342;2022-08-21T08:27:07;10.48;;;5.47;;
7332;SDS011;3707;43.618;25.342;2022-08-21T08:29:34;8.65;;;4.55;;
7332;SDS011;3707;43.618;25.342;2022-08-21T08:32:03;4.78;;;4.13;;
7332;SDS011;3707;43.618;25.342;2022-08-21T08:34:32;6.63;;;4.25;;
7332;SDS011;3707;43.618;25.342;2022-08-21T08:36:59;13.00;;;5.10;;
7332;SDS011;3707;43.618;25.342;2022-08-21T08:39:26;10.57;;;5.50;;
7332;SDS011;3707;43.618;25.342;2022-08-21T08:41:54;11.32;;;5.78;;
7332;SDS011;3707;43.618;25.342;2022-08-21T08:44:27;9.07;;;5.47;;
7332;SDS011;3707;43.618;25.342;2022-08-21T08:46:54;8.38;;;5.03;;
7332;SDS011;3707;43.618;25.342;2022-08-21T08:49:27;12.85;;;5.30;;
7332;SDS011;3707;43.618;25.342;2022-08-21T08:52:02;7.70;;;4.90;;
7332;SDS011;3707;43.618;25.342;2022-08-21T08:54:33;6.80;;;5.07;;
7332;SDS011;3707;43.618;25.342;2022-08-21T08:57:06;5.15;;;4.38;;
7332;SDS011;3707;43.618;25.342;2022-08-21T08:59:38;7.63;;;5.45;;
7332;SDS011;3707;43.618;25.342;2022-08-21T09:02:07;9.88;;;5.95;;
7332;SDS011;3707;43.618;25.342;2022-08-21T09:04:38;12.00;;;5.30;;
7332;SDS011;3707;43.618;25.342;2022-08-21T09:07:10;9.30;;;5.55;;
7332;SDS011;3707;43.618;25.342;2022-08-21T09:09:46;11.15;;;5.30;;
7332;SDS011;3707;43.618;25.342;2022-08-21T09:12:25;8.40;;;5.22;;
7332;SDS011;3707;43.618;25.342;2022-08-21T09:15:03;8.50;;;5.35;;
7332;SDS011;3707;43.618;25.342;2022-08-21T09:17:40;6.78;;;5.45;;
7332;SDS011;3707;43.618;25.342;2022-08-21T09:20:26;9.82;;;5.70;;
7332;SDS011;3707;43.618;25.342;2022-08-21T09:23:02;9.52;;;4.65;;
7332;SDS011;3707;43.618;25.342;2022-08-21T09:25:40;8.63;;;5.93;;
7332;SDS011;3707;43.618;25.342;2022-08-21T09:28:12;10.10;;;5.35;;
7332;SDS011;3707;43.618;25.342;2022-08-21T09:30:39;11.48;;;5.25;;
7332;SDS011;3707;43.618;25.342;2022-08-21T09:33:07;6.75;;;5.18;;
7332;SDS011;3707;43.618;25.342;2022-08-21T09:35:48;6.45;;;5.25;;
7332;SDS011;3707;43.618;25.342;2022-08-21T09:38:24;7.38;;;4.68;;
7332;SDS011;3707;43.618;25.342;2022-08-21T09:40:55;11.88;;;5.68;;
7332;SDS011;3707;43.618;25.342;2022-08-21T09:43:25;11.52;;;5.22;;
7332;SDS011;3707;43.618;25.342;2022-08-21T09:46:01;10.10;;;4.93;;
7332;SDS011;3707;43.618;25.342;2022-08-21T09:48:37;7.88;;;4.97;;
7332;SDS011;3707;43.618;25.342;2022-08-21T09:51:09;7.88;;;5.00;;
7332;SDS011;3707;43.618;25.342;2022-08-21T09:53:38;10.68;;;5.82;;
7332;SDS011;3707;43.618;25.342;2022-08-21T09:56:16;7.90;;;5.45;;
7332;SDS011;3707;43.618;25.342;2022-08-21T09:59:12;8.18;;;6.10;;
7332;SDS011;3707;43.618;25.342;2022-08-21T10:01:45;9.10;;;6.32;;
7332;SDS011;3707;43.618;25.342;2022-08-21T10:04:13;10.90;;;5.10;;
7332;SDS011;3707;43.618;25.342;2022-08-21T10:06:42;9.23;;;5.18;;
7332;SDS011;3707;43.618;25.342;2022-08-21T10:09:09;7.85;;;5.10;;
7332;SDS011;3707;43.618;25.342;2022-08-21T10:11:38;9.23;;;5.00;;
7332;SDS011;3707;43.618;25.342;2022-08-21T10:14:18;8.25;;;5.30;;
7332;SDS011;3707;43.618;25.342;2022-08-21T10:16:59;8.63;;;5.03;;
7332;SDS011;3707;43.618;25.342;2022-08-21T10:19:35;9.95;;;5.32;;
7332;SDS011;3707;43.618;25.342;2022-08-21T10:22:13;10.05;;;5.95;;
7332;SDS011;3707;43.618;25.342;2022-08-21T10:24:51;6.10;;;5.50;;
7332;SDS011;3707;43.618;25.342;2022-08-21T10:27:25;7.47;;;5.10;;
7332;SDS011;3707;43.618;25.342;2022-08-21T10:30:02;9.57;;;4.85;;
7332;SDS011;3707;43.618;25.342;2022-08-21T10:32:36;7.30;;;5.43;;
7332;SDS011;3707;43.618;25.342;2022-08-21T10:35:12;8.75;;;5.15;;
7332;SDS011;3707;43.618;25.342;2022-08-21T10:37:55;6.20;;;4.65;;
7332;SDS011;3707;43.618;25.342;2022-08-21T10:40:34;7.75;;;5.35;;
7332;SDS011;3707;43.618;25.342;2022-08-21T10:43:09;8.18;;;4.88;;
7332;SDS011;3707;43.618;25.342;2022-08-21T10:45:50;7.18;;;5.47;;
7332;SDS011;3707;43.618;25.342;2022-08-21T10:48:29;8.68;;;4.82;;
7332;SDS011;3707;43.618;25.342;2022-08-21T10:51:04;11.23;;;4.97;;
7332;SDS011;3707;43.618;25.342;2022-08-21T10:53:39;8.07;;;4.70;;
7332;SDS011;3707;43.618;25.342;2022-08-21T10:56:15;6.82;;;4.50;;
7332;SDS011;3707;43.618;25.342;2022-08-21T10:58:46;6.05;;;4.40;;
7332;SDS011;3707;43.618;25.342;2022-08-21T11:01:20;8.93;;;5.07;;
7332;SDS011;3707;43.618;25.342;2022-08-21T11:03:54;5.57;;;5.07;;
7332;SDS011;3707;43.618;25.342;2022-08-21T11:06:35;5.75;;;4.90;;
7332;SDS011;3707;43.618;25.342;2022-08-21T11:09:09;8.82;;;5.38;;
7332;SDS011;3707;43.618;25.342;2022-08-21T11:11:39;15.63;;;4.53;;
7332;SDS011;3707;43.618;25.342;2022-08-21T11:14:13;7.07;;;4.88;;
7332;SDS011;3707;43.618;25.342;2022-08-21T11:16:48;9.23;;;5.35;;
7332;SDS011;3707;43.618;25.342;2022-08-21T11:19:20;6.80;;;4.65;;
7332;SDS011;3707;43.618;25.342;2022-08-21T11:21:53;7.40;;;5.15;;
7332;SDS011;3707;43.618;25.342;2022-08-21T11:24:29;12.90;;;5.68;;
7332;SDS011;3707;43.618;25.342;2022-08-21T11:26:59;6.80;;;4.60;;
7332;SDS011;3707;43.618;25.342;2022-08-21T11:29:32;8.05;;;5.13;;
7332;SDS011;3707;43.618;25.342;2022-08-21T11:32:08;6.88;;;4.80;;
7332;SDS011;3707;43.618;25.342;2022-08-21T11:34:53;8.43;;;5.13;;
7332;SDS011;3707;43.618;25.342;2022-08-21T11:37:29;11.63;;;4.88;;
7332;SDS011;3707;43.618;25.342;2022-08-21T11:40:16;12.35;;;5.93;;
7332;SDS011;3707;43.618;25.342;2022-08-21T11:42:53;6.60;;;5.22;;
7332;SDS011;3707;43.618;25.342;2022-08-21T11:45:30;12.05;;;5.10;;
7332;SDS011;3707;43.618;25.342;2022-08-21T11:48:05;9.68;;;5.25;;
7332;SDS011;3707;43.618;25.342;2022-08-21T11:50:40;11.38;;;5.38;;
7332;SDS011;3707;43.618;25.342;2022-08-21T11:53:11;5.93;;;4.90;;
7332;SDS011;3707;43.618;25.342;2022-08-21T11:55:45;9.32;;;4.80;;
7332;SDS011;3707;43.618;25.342;2022-08-21T11:58:16;12.23;;;5.30;;
7332;SDS011;3707;43.618;25.342;2022-08-21T12:00:49;9.25;;;4.93;;
7332;SDS011;3707;43.618;25.342;2022-08-21T12:03:22;6.68;;;5.30;;
7332;SDS011;3707;43.618;25.342;2022-08-21T12:05:53;6.75;;;4.85;;
7332;SDS011;3707;43.618;25.342;2022-08-21T12:08:27;11.85;;;6.22;;
7332;SDS011;3707;43.618;25.342;2022-08-21T12:11:03;10.95;;;4.90;;
7332;SDS011;3707;43.618;25.342;2022-08-21T12:13:32;12.65;;;5.85;;
7332;SDS011;3707;43.618;25.342;2022-08-21T12:16:05;8.30;;;5.40;;
7332;SDS011;3707;43.618;25.342;2022-08-21T12:18:33;8.68;;;5.10;;
7332;SDS011;3707;43.618;25.342;2022-08-21T12:21:05;12.95;;;6.13;;
7332;SDS011;3707;43.618;25.342;2022-08-21T12:23:45;8.02;;;5.25;;
7332;SDS011;3707;43.618;25.342;2022-08-21T12:26:24;9.57;;;5.97;;
7332;SDS011;3707;43.618;25.342;2022-08-21T12:29:03;11.45;;;5.13;;
7332;SDS011;3707;43.618;25.342;2022-08-21T12:31:52;10.00;;;5.10;;
7332;SDS011;3707;43.618;25.342;2022-08-21T12:34:22;8.45;;;5.55;;
7332;SDS011;3707;43.618;25.342;2022-08-21T12:36:53;8.52;;;5.35;;
7332;SDS011;3707;43.618;25.342;2022-08-21T12:39:23;11.15;;;5.32;;
7332;SDS011;3707;43.618;25.342;2022-08-21T12:41:55;10.00;;;5.25;;
7332;SDS011;3707;43.618;25.342;2022-08-21T12:44:28;7.70;;;5.47;;
7332;SDS011;3707;43.618;25.342;2022-08-21T12:47:02;10.60;;;5.68;;
7332;SDS011;3707;43.618;25.342;2022-08-21T12:49:33;8.65;;;5.70;;
7332;SDS011;3707;43.618;25.342;2022-08-21T12:52:03;7.25;;;5.35;;
7332;SDS011;3707;43.618;25.342;2022-08-21T12:54:38;9.82;;;5.57;;
7332;SDS011;3707;43.618;25.342;2022-08-21T12:57:09;9.88;;;5.20;;
7332;SDS011;3707;43.618;25.342;2022-08-21T12:59:44;8.52;;;5.65;;
7332;SDS011;3707;43.618;25.342;2022-08-21T13:02:14;11.10;;;5.32;;
7332;SDS011;3707;43.618;25.342;2022-08-21T13:04:43;11.02;;;4.68;;
7332;SDS011;3707;43.618;25.342;2022-08-21T13:07:14;12.35;;;5.53;;
7332;SDS011;3707;43.618;25.342;2022-08-21T13:09:44;7.30;;;4.60;;
7332;SDS011;3707;43.618;25.342;2022-08-21T13:12:16;10.32;;;4.95;;
7332;SDS011;3707;43.618;25.342;2022-08-21T13:14:46;6.90;;;4.63;;
7332;SDS011;3707;43.618;25.342;2022-08-21T13:17:16;10.57;;;5.28;;
7332;SDS011;3707;43.618;25.342;2022-08-21T13:19:52;7.00;;;4.93;;
7332;SDS011;3707;43.618;25.342;2022-08-21T13:22:23;5.32;;;4.93;;
7332;SDS011;3707;43.618;25.342;2022-08-21T13:24:50;5.40;;;4.65;;
7332;SDS011;3707;43.618;25.342;2022-08-21T13:27:24;14.82;;;5.25;;
7332;SDS011;3707;43.618;25.342;2022-08-21T13:30:04;8.77;;;5.28;;
7332;SDS011;3707;43.618;25.342;2022-08-21T13:32:34;7.28;;;5.40;;
7332;SDS011;3707;43.618;25.342;2022-08-21T13:35:09;12.68;;;10.35;;
7332;SDS011;3707;43.618;25.342;2022-08-21T13:37:38;9.40;;;5.00;;
7332;SDS011;3707;43.618;25.342;2022-08-21T13:40:07;7.90;;;4.70;;
7332;SDS011;3707;43.618;25.342;2022-08-21T13:42:40;5.30;;;4.80;;
7332;SDS011;3707;43.618;25.342;2022-08-21T13:45:16;12.73;;;5.60;;
7332;SDS011;3707;43.618;25.342;2022-08-21T13:47:49;10.05;;;5.28;;
7332;SDS011;3707;43.618;25.342;2022-08-21T13:50:17;8.20;;;4.63;;
7332;SDS011;3707;43.618;25.342;2022-08-21T13:52:48;9.98;;;4.93;;
7332;SDS011;3707;43.618;25.342;2022-08-21T13:55:24;5.72;;;4.90;;
7332;SDS011;3707;43.618;25.342;2022-08-21T13:58:02;7.78;;;4.93;;
7332;SDS011;3707;43.618;25.342;2022-08-21T14:00:32;7.85;;;5.20;;
7332;SDS011;3707;43.618;25.342;2022-08-21T14:03:04;10.27;;;5.28;;
7332;SDS011;3707;43.618;25.342;2022-08-21T14:05:35;9.90;;;5.18;;
7332;SDS011;3707;43.618;25.342;2022-08-21T14:08:05;5.30;;;4.70;;
7332;SDS011;3707;43.618;25.342;2022-08-21T14:10:35;9.45;;;5.75;;
7332;SDS011;3707;43.618;25.342;2022-08-21T14:13:11;6.55;;;5.60;;
7332;SDS011;3707;43.618;25.342;2022-08-21T14:15:54;9.93;;;5.82;;
7332;SDS011;3707;43.618;25.342;2022-08-21T14:18:23;9.48;;;5.53;;
7332;SDS011;3707;43.618;25.342;2022-08-21T14:20:52;10.55;;;5.45;;
7332;SDS011;3707;43.618;25.342;2022-08-21T14:23:30;9.80;;;5.47;;
7332;SDS011;3707;43.618;25.342;2022-08-21T14:25:58;7.00;;;5.43;;
7332;SDS011;3707;43.618;25.342;2022-08-21T14:28:28;12.98;;;6.07;;
7332;SDS011;3707;43.618;25.342;2022-08-21T14:30:58;13.23;;;5.78;;
7332;SDS011;3707;43.618;25.342;2022-08-21T14:33:38;7.97;;;6.05;;
7332;SDS011;3707;43.618;25.342;2022-08-21T14:36:05;9.50;;;6.65;;
7332;SDS011;3707;43.618;25.342;2022-08-21T14:38:34;7.70;;;7.00;;
7332;SDS011;3707;43.618;25.342;2022-08-21T14:41:04;9.02;;;7.78;;
7332;SDS011;3707;43.618;25.342;2022-08-21T14:43:38;9.20;;;6.65;;
7332;SDS011;3707;43.618;25.342;2022-08-21T14:46:05;11.07;;;8.02;;
7332;SDS011;3707;43.618;25.342;2022-08-21T14:48:32;12.05;;;7.68;;
7332;SDS011;3707;43.618;25.342;2022-08-21T14:50:58;9.18;;;8.10;;
7332;SDS011;3707;43.618;25.342;2022-08-21T14:53:25;9.07;;;7.60;;
7332;SDS011;3707;43.618;25.342;2022-08-21T14:55:53;10.00;;;8.15;;
7332;SDS011;3707;43.618;25.342;2022-08-21T14:58:32;9.90;;;8.23;;
7332;SDS011;3707;43.618;25.342;2022-08-21T15:01:02;13.80;;;8.00;;
7332;SDS011;3707;43.618;25.342;2022-08-21T15:03:30;12.88;;;7.95;;
7332;SDS011;3707;43.618;25.342;2022-08-21T15:05:58;14.50;;;7.65;;
7332;SDS011;3707;43.618;25.342;2022-08-21T15:08:25;11.63;;;8.15;;
7332;SDS011;3707;43.618;25.342;2022-08-21T15:10:52;11.63;;;8.27;;
7332;SDS011;3707;43.618;25.342;2022-08-21T15:13:20;16.08;;;8.13;;
7332;SDS011;3707;43.618;25.342;2022-08-21T15:15:49;13.90;;;8.15;;